createdAt,value
2022-10-25T00:00:53.431Z,7.15
2022-10-25T00:03:21.531Z,6.90
2022-10-25T00:05:49.506Z,6.65
2022-10-25T00:08:18.993Z,6.78
2022-10-25T00:10:47.064Z,6.72
2022-10-25T00:13:15.114Z,6.85
2022-10-25T00:15:44.083Z,6.45
2022-10-25T00:18:12.012Z,6.80
2022-10-25T00:20:40.133Z,7.50
2022-10-25T00:23:08.112Z,6.25
2022-10-25T00:25:37.642Z,6.72
2022-10-25T00:28:05.754Z,7.07
2022-10-25T00:30:34.012Z,7.60
2022-10-25T00:33:02.055Z,6.78
2022-10-25T00:35:30.204Z,7.03
2022-10-25T00:37:58.332Z,6.47
2022-10-25T00:40:26.159Z,6.88
2022-10-25T00:42:55.712Z,7.22
2022-10-25T00:45:25.630Z,6.70
2022-10-25T00:48:00.033Z,6.88
2022-10-25T00:50:39.505Z,7.05
2022-10-25T00:53:11.038Z,6.85
2022-10-25T00:55:42.739Z,7.82
2022-10-25T00:58:15.272Z,6.65
2022-10-25T01:00:45.970Z,7.07
2022-10-25T01:03:15.199Z,5.93
2022-10-25T01:05:44.331Z,6.50
2022-10-25T01:08:12.909Z,7.45
2022-10-25T01:10:41.263Z,6.93
2022-10-25T01:13:09.135Z,6.40
2022-10-25T01:15:46.743Z,6.50
2022-10-25T01:18:22.059Z,7.18
2022-10-25T01:21:15.017Z,6.40
2022-10-25T01:24:09.932Z,6.28
2022-10-25T01:27:16.537Z,6.70
2022-10-25T01:33:05.954Z,6.90
2022-10-25T01:35:42.847Z,6.65
2022-10-25T01:38:25.954Z,6.32
2022-10-25T01:41:03.187Z,6.88
2022-10-25T01:43:39.264Z,6.47
2022-10-25T01:46:15.956Z,6.88
2022-10-25T01:48:49.144Z,5.80
2022-10-25T01:51:45.524Z,6.88
2022-10-25T01:54:19.682Z,6.00
2022-10-25T01:56:59.477Z,6.68
2022-10-25T01:59:50.450Z,6.40
2022-10-25T02:02:26.220Z,6.00
2022-10-25T02:05:04.282Z,5.83
2022-10-25T02:07:37.300Z,6.57
2022-10-25T02:10:08.774Z,6.30
2022-10-25T02:12:45.696Z,6.55
2022-10-25T02:15:19.483Z,6.68
2022-10-25T02:17:54.848Z,6.40
2022-10-25T02:20:27.011Z,6.18
2022-10-25T02:22:55.830Z,6.22
2022-10-25T02:25:23.911Z,5.70
2022-10-25T02:27:53.808Z,5.88
2022-10-25T02:30:22.175Z,5.95
2022-10-25T02:32:50.621Z,5.88
2022-10-25T02:35:19.642Z,6.00
2022-10-25T02:40:22.460Z,5.93
2022-10-25T02:45:23.967Z,6.40
2022-10-25T02:47:51.876Z,5.85
2022-10-25T02:50:19.771Z,6.05
2022-10-25T02:52:49.153Z,5.85
2022-10-25T02:55:17.508Z,5.70
2022-10-25T02:57:45.318Z,7.00
2022-10-25T03:00:14.686Z,6.30
2022-10-25T03:02:42.438Z,5.55
2022-10-25T03:05:10.615Z,6.63
2022-10-25T03:07:38.454Z,5.95
2022-10-25T03:10:10.103Z,5.47
2022-10-25T03:12:38.243Z,5.40
2022-10-25T03:15:07.258Z,5.53
2022-10-25T03:17:35.045Z,6.93
2022-10-25T03:20:02.840Z,5.82
2022-10-25T03:22:32.139Z,5.47
2022-10-25T03:24:59.939Z,6.05
2022-10-25T03:27:29.228Z,5.50
2022-10-25T03:29:56.998Z,6.30
2022-10-25T03:32:24.916Z,6.07
2022-10-25T03:37:25.506Z,5.68
2022-10-25T03:39:54.381Z,5.78
2022-10-25T03:42:22.096Z,5.93
2022-10-25T03:44:51.810Z,5.70
2022-10-25T03:47:19.840Z,5.90
2022-10-25T03:49:47.833Z,5.10
2022-10-25T03:52:15.636Z,5.45
2022-10-25T03:54:43.698Z,6.57
2022-10-25T03:57:11.588Z,6.10
2022-10-25T03:59:39.660Z,6.55
2022-10-25T04:02:09.545Z,6.80
2022-10-25T04:04:37.461Z,6.25
2022-10-25T04:07:05.318Z,6.53
2022-10-25T04:09:33.315Z,6.47
2022-10-25T04:12:01.688Z,6.50
2022-10-25T04:14:29.551Z,6.50
2022-10-25T04:16:57.404Z,5.97
2022-10-25T04:19:26.604Z,6.65
2022-10-25T04:24:23.003Z,6.18
2022-10-25T04:29:18.704Z,6.10
2022-10-25T04:31:46.468Z,6.10
2022-10-25T04:34:14.414Z,6.03
2022-10-25T04:36:43.725Z,6.07
2022-10-25T04:39:12.030Z,6.13
2022-10-25T04:41:40.037Z,5.53
2022-10-25T04:44:08.008Z,5.35
2022-10-25T04:46:36.110Z,6.25
2022-10-25T04:49:04.129Z,6.10
2022-10-25T04:51:32.278Z,5.70
2022-10-25T04:54:01.570Z,6.00
2022-10-25T04:56:30.100Z,5.95
2022-10-25T04:58:59.548Z,5.95
2022-10-25T05:01:27.669Z,6.50
2022-10-25T05:03:55.735Z,6.03
2022-10-25T05:06:26.722Z,5.85
2022-10-25T05:08:55.473Z,5.80
2022-10-25T05:11:26.136Z,5.90
2022-10-25T05:13:54.218Z,6.53
2022-10-25T05:16:24.754Z,6.45
2022-10-25T05:18:57.139Z,6.45
2022-10-25T05:21:31.547Z,6.93
2022-10-25T05:24:01.958Z,7.10
2022-10-25T05:26:32.229Z,6.63
2022-10-25T05:29:00.166Z,6.47
2022-10-25T05:31:29.634Z,6.60
2022-10-25T05:33:59.241Z,6.13
2022-10-25T05:36:29.663Z,6.65
2022-10-25T05:38:58.485Z,6.93
2022-10-25T05:41:26.264Z,7.15
2022-10-25T05:43:55.607Z,6.40
2022-10-25T05:46:24.543Z,6.82
2022-10-25T05:48:53.856Z,6.70
2022-10-25T05:51:39.342Z,7.00
2022-10-25T05:54:09.592Z,7.55
2022-10-25T05:56:37.782Z,7.03
2022-10-25T05:59:09.291Z,6.50
2022-10-25T06:01:38.522Z,7.00
2022-10-25T06:04:07.007Z,6.90
2022-10-25T06:06:35.852Z,7.15
2022-10-25T06:09:03.833Z,7.00
2022-10-25T06:11:33.516Z,7.22
2022-10-25T06:14:01.355Z,7.22
2022-10-25T06:16:30.934Z,7.78
2022-10-25T06:19:14.770Z,6.95
2022-10-25T06:21:42.778Z,7.07
2022-10-25T06:24:10.696Z,7.25
2022-10-25T06:26:38.430Z,7.07
2022-10-25T06:29:06.429Z,6.75
2022-10-25T06:31:35.640Z,6.68
2022-10-25T06:34:03.911Z,6.95
2022-10-25T06:36:32.103Z,7.18
2022-10-25T06:39:05.328Z,7.82
2022-10-25T06:41:37.266Z,7.18
2022-10-25T06:44:07.328Z,7.00
2022-10-25T06:47:04.403Z,7.45
2022-10-25T06:49:27.232Z,7.28
2022-10-25T06:51:56.519Z,7.10
2022-10-25T06:54:25.702Z,7.10
2022-10-25T06:56:53.422Z,7.40
2022-10-25T06:59:21.296Z,7.25
2022-10-25T07:01:50.887Z,7.85
2022-10-25T07:04:18.844Z,7.20
2022-10-25T07:06:49.971Z,8.15
2022-10-25T07:09:20.597Z,7.07
2022-10-25T07:11:48.449Z,7.68
2022-10-25T07:14:16.469Z,7.93
2022-10-25T07:16:44.181Z,9.18
2022-10-25T07:19:13.449Z,9.10
2022-10-25T07:21:41.220Z,8.68
2022-10-25T07:24:11.378Z,8.25
2022-10-25T07:26:40.580Z,8.68
2022-10-25T07:29:08.740Z,8.40
2022-10-25T07:31:38.456Z,9.02
2022-10-25T07:34:06.739Z,9.77
2022-10-25T07:36:36.177Z,9.32
2022-10-25T07:39:04.178Z,8.93
2022-10-25T07:41:31.994Z,9.80
2022-10-25T07:43:59.988Z,8.40
2022-10-25T07:46:27.772Z,8.93
2022-10-25T07:48:55.628Z,7.90
2022-10-25T07:51:23.436Z,9.13
2022-10-25T07:53:53.700Z,9.88
2022-10-25T07:56:23.660Z,8.82
2022-10-25T07:58:52.551Z,8.40
2022-10-25T08:01:22.464Z,9.52
2022-10-25T08:03:50.847Z,9.27
2022-10-25T08:06:19.229Z,9.13
2022-10-25T08:08:47.497Z,9.40
2022-10-25T08:11:17.209Z,9.13
2022-10-25T08:13:47.838Z,8.68
2022-10-25T08:16:15.806Z,9.27
2022-10-25T08:18:44.445Z,9.23
2022-10-25T08:23:45.404Z,9.13
2022-10-25T08:26:13.347Z,8.82
2022-10-25T08:28:43.010Z,7.95
2022-10-25T08:31:11.141Z,8.18
2022-10-25T08:33:39.278Z,8.85
2022-10-25T08:36:08.350Z,7.68
2022-10-25T08:38:36.467Z,7.68
2022-10-25T08:41:14.660Z,8.13
2022-10-25T08:44:18.950Z,9.05
2022-10-25T08:46:56.308Z,8.95
2022-10-25T08:49:29.448Z,8.80
2022-10-25T08:51:58.790Z,8.73
2022-10-25T08:54:30.058Z,8.82
2022-10-25T08:57:15.812Z,8.10
2022-10-25T08:59:48.957Z,8.05
2022-10-25T09:02:36.004Z,8.73
2022-10-25T09:05:04.738Z,8.35
2022-10-25T09:07:55.626Z,8.50
2022-10-25T09:10:33.899Z,8.05
2022-10-25T09:13:10.953Z,8.35
2022-10-25T09:16:09.708Z,8.40
2022-10-25T09:18:57.440Z,8.25
2022-10-25T09:21:37.451Z,8.95
2022-10-25T09:24:14.080Z,7.85
2022-10-25T09:29:20.541Z,7.72
2022-10-25T09:31:52.244Z,8.70
2022-10-25T09:34:23.889Z,8.32
2022-10-25T09:36:57.943Z,8.45
2022-10-25T09:39:34.298Z,7.93
2022-10-25T09:42:04.062Z,7.72
2022-10-25T09:44:39.523Z,7.95
2022-10-25T09:47:21.421Z,8.20
2022-10-25T09:49:56.904Z,8.15
2022-10-25T09:52:31.993Z,8.40
2022-10-25T09:55:16.445Z,7.95
2022-10-25T09:57:46.763Z,8.13
2022-10-25T10:00:16.060Z,7.10
2022-10-25T10:02:44.300Z,7.22
2022-10-25T10:05:18.841Z,7.35
2022-10-25T10:07:47.687Z,6.95
2022-10-25T10:10:18.791Z,6.20
2022-10-25T10:12:52.644Z,6.88
2022-10-25T10:15:25.571Z,6.97
2022-10-25T10:18:26.072Z,6.45
2022-10-25T10:21:08.493Z,6.47
2022-10-25T10:23:44.913Z,6.40
2022-10-25T10:28:46.411Z,6.65
2022-10-25T10:31:14.773Z,6.78
2022-10-25T10:33:49.362Z,6.20
2022-10-25T10:36:27.630Z,6.15
2022-10-25T10:39:13.580Z,5.95
2022-10-25T10:42:01.151Z,5.70
2022-10-25T10:44:30.513Z,5.75
2022-10-25T10:46:58.489Z,5.80
2022-10-25T10:49:34.997Z,6.45
2022-10-25T10:54:35.423Z,5.95
2022-10-25T10:57:05.924Z,5.82
2022-10-25T10:59:40.845Z,6.00
2022-10-25T11:02:35.366Z,6.00
2022-10-25T11:05:03.410Z,5.75
2022-10-25T11:07:35.404Z,5.95
2022-10-25T11:10:25.031Z,6.28
2022-10-25T11:13:20.863Z,6.45
2022-10-25T11:16:28.164Z,6.22
2022-10-25T11:19:15.311Z,6.43
2022-10-25T11:22:11.347Z,6.22
2022-10-25T11:24:53.922Z,6.90
2022-10-25T11:27:35.001Z,5.80
2022-10-25T11:30:14.579Z,5.57
2022-10-25T11:33:21.780Z,6.28
2022-10-25T11:36:11.732Z,6.25
2022-10-25T11:38:53.062Z,5.97
2022-10-25T11:41:34.662Z,6.72
2022-10-25T11:44:30.951Z,6.07
2022-10-25T11:47:07.695Z,5.65
2022-10-25T11:50:12.202Z,6.25
2022-10-25T11:53:16.893Z,6.20
2022-10-25T11:55:49.943Z,5.82
2022-10-25T11:58:34.200Z,6.80
2022-10-25T12:01:15.065Z,6.05
2022-10-25T12:04:00.370Z,6.38
2022-10-25T12:06:37.739Z,6.22
2022-10-25T12:09:12.311Z,5.88
2022-10-25T12:11:45.541Z,6.10
2022-10-25T12:14:20.234Z,6.78
2022-10-25T12:16:48.441Z,5.47
2022-10-25T12:19:23.310Z,6.03
2022-10-25T12:21:56.779Z,6.97
2022-10-25T12:24:34.461Z,5.32
2022-10-25T12:27:03.323Z,4.78
2022-10-25T12:29:36.572Z,6.00
2022-10-25T12:32:12.281Z,5.43
2022-10-25T12:34:44.052Z,6.00
2022-10-25T12:37:19.789Z,6.40
2022-10-25T12:39:48.108Z,5.65
2022-10-25T12:42:20.762Z,6.18
2022-10-25T12:45:27.176Z,5.70
2022-10-25T12:48:09.044Z,5.57
2022-10-25T12:50:57.959Z,5.40
2022-10-25T12:53:59.192Z,5.80
2022-10-25T12:56:41.880Z,5.20
2022-10-25T12:59:21.258Z,5.30
2022-10-25T13:02:08.554Z,5.60
2022-10-25T13:05:02.539Z,6.03
2022-10-25T13:07:32.008Z,6.07
2022-10-25T13:10:05.607Z,5.82
2022-10-25T13:12:33.992Z,5.32
2022-10-25T13:15:02.670Z,6.10
2022-10-25T13:18:01.668Z,5.80
2022-10-25T13:20:48.385Z,5.13
2022-10-25T13:23:59.843Z,5.78
2022-10-25T13:26:33.970Z,5.63
2022-10-25T13:29:04.165Z,5.72
2022-10-25T13:31:47.020Z,5.55
2022-10-25T13:34:40.296Z,5.32
2022-10-25T13:37:42.024Z,5.10
2022-10-25T13:40:27.494Z,5.03
2022-10-25T13:43:02.392Z,6.22
2022-10-25T13:45:39.395Z,4.85
2022-10-25T13:48:35.205Z,5.70
2022-10-25T13:51:11.625Z,6.68
2022-10-25T13:53:41.300Z,5.25
2022-10-25T13:56:14.097Z,5.63
2022-10-25T13:58:45.439Z,5.80
2022-10-25T14:02:17.630Z,5.07
2022-10-25T14:04:45.668Z,4.95
2022-10-25T14:07:46.554Z,3.97
2022-10-25T14:10:27.977Z,4.28
2022-10-25T14:13:08.554Z,3.97
2022-10-25T14:15:47.797Z,4.20
2022-10-25T14:18:20.853Z,4.07
2022-10-25T14:20:53.377Z,4.43
2022-10-25T14:23:24.984Z,4.15
2022-10-25T14:25:56.609Z,3.70
2022-10-25T14:28:26.554Z,3.80
2022-10-25T14:30:56.785Z,4.00
2022-10-25T14:33:27.483Z,4.25
2022-10-25T14:35:58.057Z,3.90
2022-10-25T14:38:28.599Z,4.55
2022-10-25T14:40:58.571Z,3.92
2022-10-25T14:43:31.323Z,3.40
2022-10-25T14:46:01.855Z,3.50
2022-10-25T14:48:30.546Z,3.80
2022-10-25T14:51:01.230Z,3.45
2022-10-25T14:53:31.037Z,4.22
2022-10-25T14:56:01.314Z,4.13
2022-10-25T14:58:41.704Z,4.00
2022-10-25T15:01:12.666Z,4.40
2022-10-25T15:03:43.548Z,3.92
2022-10-25T15:06:13.716Z,4.13
2022-10-25T15:08:49.185Z,4.00
2022-10-25T15:11:20.689Z,3.75
2022-10-25T15:13:50.194Z,4.10
2022-10-25T15:16:35.507Z,4.65
2022-10-25T15:19:18.272Z,3.83
2022-10-25T15:21:49.009Z,3.50
2022-10-25T15:24:20.800Z,3.65
2022-10-25T15:26:53.608Z,4.10
2022-10-25T15:29:45.448Z,4.40
2022-10-25T15:32:16.749Z,3.63
2022-10-25T15:34:51.945Z,3.60
2022-10-25T15:37:21.786Z,3.60
2022-10-25T15:39:53.191Z,3.75
2022-10-25T15:42:21.911Z,4.18
2022-10-25T15:44:50.308Z,4.45
2022-10-25T15:47:37.916Z,4.80
2022-10-25T15:50:14.514Z,4.63
2022-10-25T15:52:42.865Z,4.47
2022-10-25T15:55:19.715Z,4.55
2022-10-25T15:57:48.215Z,4.93
2022-10-25T16:00:17.304Z,5.95
2022-10-25T16:02:46.278Z,5.85
2022-10-25T16:05:20.334Z,5.80
2022-10-25T16:07:48.548Z,5.75
2022-10-25T16:10:18.544Z,6.07
2022-10-25T16:12:49.655Z,6.60
2022-10-25T16:15:19.237Z,6.85
2022-10-25T16:17:50.494Z,7.38
2022-10-25T16:20:21.175Z,7.47
2022-10-25T16:22:50.251Z,6.88
2022-10-25T16:25:20.534Z,6.50
2022-10-25T16:27:49.118Z,6.75
2022-10-25T16:30:19.566Z,5.75
2022-10-25T16:32:47.804Z,5.38
2022-10-25T16:35:16.527Z,5.50
2022-10-25T16:37:44.770Z,6.28
2022-10-25T16:40:16.262Z,5.88
2022-10-25T16:42:46.632Z,6.28
2022-10-25T16:45:19.617Z,6.07
2022-10-25T16:47:48.755Z,5.93
2022-10-25T16:50:23.307Z,6.15
2022-10-25T16:52:51.464Z,5.65
2022-10-25T16:55:19.565Z,5.13
2022-10-25T17:00:25.900Z,6.72
2022-10-25T17:02:54.639Z,7.18
2022-10-25T17:05:24.768Z,6.72
2022-10-25T17:07:53.020Z,6.10
2022-10-25T17:10:22.590Z,5.95
2022-10-25T17:12:53.649Z,5.72
2022-10-25T17:15:22.980Z,6.97
2022-10-25T17:17:51.192Z,5.88
2022-10-25T17:20:19.562Z,6.97
2022-10-25T17:22:49.183Z,6.15
2022-10-25T17:25:17.498Z,6.80
2022-10-25T17:27:48.120Z,6.65
2022-10-25T17:30:18.505Z,9.35
2022-10-25T17:32:47.429Z,8.95
2022-10-25T17:35:15.317Z,8.98
2022-10-25T17:37:44.585Z,8.07
2022-10-25T17:40:16.629Z,8.57
2022-10-25T17:42:45.191Z,7.80
2022-10-25T17:45:13.269Z,8.95
2022-10-25T17:47:43.308Z,8.68
2022-10-25T17:50:13.114Z,8.20
2022-10-25T17:52:42.480Z,10.38
2022-10-25T17:55:11.577Z,10.40
2022-10-25T17:57:39.454Z,38.75
2022-10-25T18:00:08.847Z,19.88
2022-10-25T18:02:50.798Z,18.13
2022-10-25T18:05:21.149Z,15.85
2022-10-25T18:07:50.424Z,12.00
2022-10-25T18:10:18.840Z,10.52
2022-10-25T18:12:47.159Z,9.30
2022-10-25T18:15:15.370Z,9.93
2022-10-25T18:17:46.978Z,10.38
2022-10-25T18:20:15.969Z,8.45
2022-10-25T18:22:44.256Z,8.90
2022-10-25T18:25:12.508Z,8.30
2022-10-25T18:27:40.791Z,9.93
2022-10-25T18:30:16.228Z,9.43
2022-10-25T18:32:46.362Z,9.48
2022-10-25T18:37:42.131Z,9.85
2022-10-25T18:40:15.352Z,9.25
2022-10-25T18:42:43.525Z,9.43
2022-10-25T18:45:11.553Z,9.45
2022-10-25T18:47:41.040Z,8.32
2022-10-25T18:50:10.721Z,9.25
2022-10-25T18:52:38.830Z,9.18
2022-10-25T18:55:06.930Z,9.38
2022-10-25T18:57:35.074Z,9.77
2022-10-25T19:00:03.000Z,9.27
2022-10-25T19:02:35.375Z,8.93
2022-10-25T19:07:42.941Z,9.02
2022-10-25T19:10:11.083Z,8.63
2022-10-25T19:12:39.058Z,9.13
2022-10-25T19:15:08.088Z,9.30
2022-10-25T19:17:36.168Z,8.55
2022-10-25T19:20:05.001Z,8.57
2022-10-25T19:22:33.420Z,9.40
2022-10-25T19:25:02.997Z,8.60
2022-10-25T19:27:31.377Z,8.82
2022-10-25T19:29:59.626Z,7.90
2022-10-25T19:32:31.000Z,9.13
2022-10-25T19:34:59.210Z,8.57
2022-10-25T19:37:27.437Z,9.05
2022-10-25T19:39:58.183Z,8.20
2022-10-25T19:42:29.066Z,7.45
2022-10-25T19:47:26.133Z,7.40
2022-10-25T19:49:54.375Z,7.10
2022-10-25T19:52:22.751Z,7.13
2022-10-25T19:54:50.907Z,7.20
2022-10-25T19:57:18.960Z,7.05
2022-10-25T19:59:48.621Z,6.80
2022-10-25T20:02:16.947Z,6.93
2022-10-25T20:04:45.222Z,7.85
2022-10-25T20:07:28.193Z,6.60
2022-10-25T20:09:56.442Z,7.47
2022-10-25T20:12:24.632Z,7.10
2022-10-25T20:14:54.400Z,7.20
2022-10-25T20:17:22.581Z,6.78
2022-10-25T20:19:50.992Z,6.03
2022-10-25T20:22:19.182Z,6.68
2022-10-25T20:24:47.811Z,6.43
2022-10-25T20:27:16.059Z,7.18
2022-10-25T20:29:47.332Z,6.22
2022-10-25T20:32:17.831Z,6.28
2022-10-25T20:34:46.291Z,7.82
2022-10-25T20:37:14.522Z,7.30
2022-10-25T20:39:43.221Z,6.63
2022-10-25T20:42:14.282Z,5.40
2022-10-25T20:44:51.043Z,6.15
2022-10-25T20:47:21.003Z,6.00
2022-10-25T20:49:49.165Z,6.00
2022-10-25T20:52:17.586Z,6.13
2022-10-25T20:54:46.780Z,5.47
2022-10-25T20:57:16.369Z,6.35
2022-10-25T20:59:44.483Z,6.18
2022-10-25T21:02:15.219Z,5.90
2022-10-25T21:04:53.296Z,5.65
2022-10-25T21:07:22.234Z,5.60
2022-10-25T21:09:50.575Z,5.97
2022-10-25T21:12:28.842Z,5.88
2022-10-25T21:14:56.925Z,5.63
2022-10-25T21:17:25.732Z,6.10
2022-10-25T21:19:55.442Z,5.68
2022-10-25T21:22:23.524Z,6.13
2022-10-25T21:24:51.643Z,5.57
2022-10-25T21:27:19.718Z,5.90
2022-10-25T21:29:48.292Z,6.47
2022-10-25T21:32:16.260Z,6.90
2022-10-25T21:34:44.275Z,5.88
2022-10-25T21:37:14.316Z,5.95
2022-10-25T21:39:43.679Z,5.90
2022-10-25T21:42:11.873Z,5.70
2022-10-25T21:44:40.421Z,5.93
2022-10-25T21:47:08.672Z,5.85
2022-10-25T21:49:36.843Z,5.22
2022-10-25T21:52:05.240Z,5.97
2022-10-25T21:54:35.391Z,5.40
2022-10-25T21:57:03.570Z,5.38
2022-10-25T21:59:32.201Z,5.28
2022-10-25T22:02:00.429Z,6.05
2022-10-25T22:04:28.771Z,5.32
2022-10-25T22:06:57.153Z,5.45
2022-10-25T22:09:25.369Z,5.25
2022-10-25T22:11:55.483Z,5.07
2022-10-25T22:14:24.705Z,5.10
2022-10-25T22:16:52.729Z,5.00
2022-10-25T22:21:55.427Z,4.53
2022-10-25T22:24:23.307Z,4.70
2022-10-25T22:26:51.659Z,4.90
2022-10-25T22:29:21.309Z,6.30
2022-10-25T22:31:49.579Z,5.78
2022-10-25T22:34:17.891Z,4.97
2022-10-25T22:36:45.840Z,6.25
2022-10-25T22:39:16.840Z,5.80
2022-10-25T22:41:46.382Z,4.63
2022-10-25T22:44:14.536Z,5.35
2022-10-25T22:46:43.963Z,5.38
2022-10-25T22:49:12.100Z,5.90
2022-10-25T22:51:40.201Z,5.05
2022-10-25T22:54:08.500Z,5.03
2022-10-25T22:56:36.591Z,5.10
2022-10-25T22:59:06.543Z,6.55
2022-10-25T23:01:35.685Z,6.15
2022-10-25T23:04:07.279Z,6.85
2022-10-25T23:06:37.152Z,6.65
2022-10-25T23:09:07.095Z,7.13
2022-10-25T23:11:38.889Z,6.80
2022-10-25T23:14:14.844Z,7.30
2022-10-25T23:16:45.708Z,6.00
2022-10-25T23:19:15.349Z,5.78
2022-10-25T23:21:43.314Z,6.07
2022-10-25T23:24:11.551Z,5.38
2022-10-25T23:26:39.623Z,5.75
2022-10-25T23:29:07.712Z,5.28
2022-10-25T23:31:36.822Z,5.40
2022-10-25T23:34:04.932Z,5.75
2022-10-25T23:36:37.937Z,6.30
2022-10-25T23:39:08.431Z,7.10
2022-10-25T23:41:36.891Z,7.07
2022-10-25T23:44:05.387Z,7.20
2022-10-25T23:46:33.306Z,7.80
2022-10-25T23:49:01.307Z,7.85
2022-10-25T23:51:29.103Z,7.70
2022-10-25T23:53:58.581Z,7.25
2022-10-25T23:56:26.603Z,8.45
2022-10-25T23:58:54.540Z,9.07
